Ghayl Ba Wazir, Yemen
Current Conditions -  °F | °C
As of 3:00 PM on Wednesday 22 Oct 2014 (Local Time) from OYRN Reporting Station
Few Clouds Few Clouds  
Wind Chill: 86°   Ceiling: Unl
Heat Index: 92°   Visibility: 6mi
Dew Point: 72°   Wind: 12mph
Humidity: 62%   Direction: 140°SE
Pressure: 29.91"   Gusts: NA
Location:  14.77°N, 49.37°E
Report Text: OYRN 221200Z 14010KT 9999 FEW020 30/22 Q1013
Loading
Personal Weather Stations






























Interactive Weather Map
Tropical Storm Tracking
New forecast layout! Learn more

10-Day Weather Forecast

Advertisements
Track Severe Weather on mobile